Terminal Aerodrome Forecast
Issued by NWS

Home | Current Version | Previous Version | Text Only | Print | Product List | Glossary On
Versions: 1 2 3 4 5 6 7 8 9 10 11 12 13
000
FTUS45 KRIW 031929 AAA
TAFLND
TAF AMD
KLND 031929Z 0319/0418 16020G28KT P6SM VCSH SCT080 BKN150
     FM032300 VRB10G15KT P6SM SHRA VCTS SCT040 OVC070CB
     FM040200 32007KT 6SM SHRA BR SCT025 OVC040
     FM041100 VRB05KT P6SM SCT030 BKN060=

USA.gov is the U.S. government's official web portal to all federal, state and local government web resources and services.